KMLJ

Baldwin County Airport

Milledgeville, Georgia, USA
METAR KMLJ 252235Z AUTO 00000KT 7SM -VCTSRA SCT040 SCT048 OVC050 24/23 A2997 RMK AO2 LTG DSNT ALQS
Observed Flight Rules
May-25 @ 22:35 UTC (8 minutes ago) Visual Flight Rules
Visibility Clouds Conditions
7 miles
  • Scattered at 4,000' AGL
  • Scattered at 4,800' AGL
  • Overcast at 5,000' AGL
  • Area Thunderstorm
  • Light Rain
Temperatures Readings
Current 24°C / 75°F
Dewpoint 23°C / 73°F
Humidity 94%
Altimeter 29.97" Hg
Pressure 1015 hPa
Elevation 117
METAR KMLJ 252235Z AUTO 00000KT 7SM -VCTSRA SCT040 SCT048 OVC050 24/23 A2997 RMK AO2 LTG DSNT ALQS
Observed Flight Rules
May-25 @ 22:35 UTC
(8 minutes ago)
VFR
Clouds
  • Scattered at 4,000' AGL
  • Scattered at 4,800' AGL
  • Overcast at 5,000' AGL
Conditions
  • Area Thunderstorm
  • Light Rain
Temperature Dewpoint
24°C / 75°F 23°C / 73°F
Humidity Altimeter Pressure
94% 29.97" Hg 1015 hPa